Harmony, Pennsylvania
Current Conditions -  °F | °C
As of 9:15 AM on Thursday 18 Dec 2014 (Local Time) from KBTP Reporting Station
Overcast Overcast  
Wind Chill: 18°   Ceiling: 1900
Heat Index: 27°   Visibility: 8mi
Dew Point: 21°   Wind: 8mph
Humidity: 80%   Direction: 260°W
Pressure: 30.18"   Gusts: NA
Location:  40.8°N, 80.13°W
Report Text: KBTP 181415Z AUTO 26007KT 8SM OVC019 M03/M06 A3018 RMK AO1
Loading
Personal Weather Stations






























Interactive Weather Map New forecast layout! Learn more

10-Day Weather Forecast

Advertisements
Track Severe Weather on mobile